Portada
METAR-TAF:

METAR-TAF

Aeropuertos :

Aeropuerto de Bratislava-Milan Rastislav Štefánik

Bratislava, Eslovaquia

latitud: 48-12N, longitud: 017-12E, altitud: 133 m

Observación

El informe se hizo hace 41 minutos, a las 16:00 UTC
Viento 15 kt del sur
Temperatura 14°C
Humedad 47%
Presión 1011 hPa
Visibilidad 10 km o más
Escasas nubes a una altura de 3900 ft

METAR: LZIB 061600Z 19015KT 9999 FEW039 14/03 Q1011 NOSIG

Hora: 18:41 (16:41 UTC)

Pronóstico

El informe se hizo hace 5 horas y 41 minutos, a las 11:00 UTC
Pronóstico válido del 06 a las 12 UTC al 07 a las 12 UTC
Viento 10 kt del sur
Visibilidad 10 km o más
Nubes dispersas a una altura de 4500 ft
Temporalmente
del 06 a las 23 UTC al 07 a las 04 UTC
Cielo nuboso a una altura de 4000 ft
chaparrones de lluvia
Evolucionando progresivamente
del 07 a las 04 UTC al 07 a las 06 UTC
Viento 12 kt del oeste

TAF: LZIB 061100Z 0612/0712 19010KT 9999 SCT045 TEMPO 0623/0704 -SHRA BKN040 BECMG 0704/0706 27012KT

Observaciones y pronósticos meteorológicos de más de 4000 aeropuertos (mensajes METAR y TAF).

Los puntos amarillos y rojos representan las estaciones disponibles.

Ponga el ratón en el punto deseado para ver el nombre de la estación.

Haga clic para ver las observaciones y los pronósticos meteorológicos.

Para cambiar el mapa : haga clic en los botones verdes con una cruz de color negro para hacer un zoom, en el botón verde con un guión para alejar o en las flechas verdes para mapas adyacentes.


METAR-TAF: